sensor_id;sensor_type;location;lat;lon;timestamp;pressure;altitude;pressure_sealevel;temperature;humidity
50302;BME280;36550;50.472;19.744;2022-10-20T00:01:33;99093.25;;;5.49;79.92
50302;BME280;36550;50.472;19.744;2022-10-20T00:04:17;99091.83;;;5.42;80.06
50302;BME280;36550;50.472;19.744;2022-10-20T00:07:01;99095.13;;;5.36;80.19
50302;BME280;36550;50.472;19.744;2022-10-20T00:09:45;99095.17;;;5.32;80.25
50302;BME280;36550;50.472;19.744;2022-10-20T00:12:30;99096.03;;;5.24;80.25
50302;BME280;36550;50.472;19.744;2022-10-20T00:15:14;99093.44;;;5.20;80.17
50302;BME280;36550;50.472;19.744;2022-10-20T00:17:59;99097.38;;;5.16;79.96
50302;BME280;36550;50.472;19.744;2022-10-20T00:20:44;99104.41;;;5.07;79.57
50302;BME280;36550;50.472;19.744;2022-10-20T00:23:28;99108.05;;;5.02;79.48
50302;BME280;36550;50.472;19.744;2022-10-20T00:26:18;99112.94;;;4.97;79.67
50302;BME280;36550;50.472;19.744;2022-10-20T00:29:02;99113.44;;;4.92;79.92
50302;BME280;36550;50.472;19.744;2022-10-20T00:31:47;99109.59;;;4.84;80.00
50302;BME280;36550;50.472;19.744;2022-10-20T00:34:32;99105.24;;;4.76;80.09
50302;BME280;36550;50.472;19.744;2022-10-20T00:37:16;99107.84;;;4.72;80.18
50302;BME280;36550;50.472;19.744;2022-10-20T00:40:00;99109.49;;;4.65;80.20
50302;BME280;36550;50.472;19.744;2022-10-20T00:42:46;99101.23;;;4.57;80.12
50302;BME280;36550;50.472;19.744;2022-10-20T00:45:30;99096.23;;;4.52;79.98
50302;BME280;36550;50.472;19.744;2022-10-20T00:48:17;99102.89;;;4.50;79.81
50302;BME280;36550;50.472;19.744;2022-10-20T00:51:02;99089.11;;;4.46;79.75
50302;BME280;36550;50.472;19.744;2022-10-20T00:53:49;99091.56;;;4.39;79.44
50302;BME280;36550;50.472;19.744;2022-10-20T00:56:35;99090.77;;;4.30;79.20
50302;BME280;36550;50.472;19.744;2022-10-20T00:59:25;99087.41;;;4.21;79.11
50302;BME280;36550;50.472;19.744;2022-10-20T01:02:12;99078.83;;;4.09;78.93
50302;BME280;36550;50.472;19.744;2022-10-20T01:04:56;99083.05;;;3.97;78.89
50302;BME280;36550;50.472;19.744;2022-10-20T01:07:41;99088.58;;;3.86;78.80
50302;BME280;36550;50.472;19.744;2022-10-20T01:10:27;99090.07;;;3.72;78.78
50302;BME280;36550;50.472;19.744;2022-10-20T01:23:09;99083.25;;;3.34;79.16
50302;BME280;36550;50.472;19.744;2022-10-20T01:33:06;99068.81;;;3.40;79.65
50302;BME280;36550;50.472;19.744;2022-10-20T01:35:58;99079.69;;;3.39;79.48
50302;BME280;36550;50.472;19.744;2022-10-20T01:38:52;99082.75;;;3.31;79.24
50302;BME280;36550;50.472;19.744;2022-10-20T01:41:49;99078.87;;;3.22;79.15
50302;BME280;36550;50.472;19.744;2022-10-20T01:44:36;99083.38;;;3.12;78.93
50302;BME280;36550;50.472;19.744;2022-10-20T01:47:23;99087.42;;;3.02;78.84
50302;BME280;36550;50.472;19.744;2022-10-20T01:50:10;99091.62;;;2.95;78.83
50302;BME280;36550;50.472;19.744;2022-10-20T01:52:56;99088.98;;;2.83;78.67
50302;BME280;36550;50.472;19.744;2022-10-20T01:55:42;99088.94;;;2.75;78.67
50302;BME280;36550;50.472;19.744;2022-10-20T01:58:41;99084.05;;;2.63;78.49
50302;BME280;36550;50.472;19.744;2022-10-20T02:07:33;99083.62;;;2.38;78.44
50302;BME280;36550;50.472;19.744;2022-10-20T02:10:20;99086.36;;;2.36;78.48
50302;BME280;36550;50.472;19.744;2022-10-20T02:13:09;99087.00;;;2.34;78.52
50302;BME280;36550;50.472;19.744;2022-10-20T02:15:58;99091.52;;;2.32;78.56
50302;BME280;36550;50.472;19.744;2022-10-20T02:18:46;99088.13;;;2.31;78.64
50302;BME280;36550;50.472;19.744;2022-10-20T02:21:31;99092.51;;;2.31;78.76
50302;BME280;36550;50.472;19.744;2022-10-20T02:24:16;99088.43;;;2.28;78.97
50302;BME280;36550;50.472;19.744;2022-10-20T02:27:04;99086.61;;;2.21;78.84
50302;BME280;36550;50.472;19.744;2022-10-20T02:30:05;99087.23;;;2.15;78.84
50302;BME280;36550;50.472;19.744;2022-10-20T02:32:52;99085.88;;;2.06;78.87
50302;BME280;36550;50.472;19.744;2022-10-20T02:35:36;99083.57;;;1.99;78.90
50302;BME280;36550;50.472;19.744;2022-10-20T02:38:20;99086.28;;;1.93;78.85
50302;BME280;36550;50.472;19.744;2022-10-20T02:41:04;99088.05;;;1.89;78.81
50302;BME280;36550;50.472;19.744;2022-10-20T02:43:49;99096.63;;;1.89;78.92
50302;BME280;36550;50.472;19.744;2022-10-20T02:46:33;99094.55;;;1.93;79.06
50302;BME280;36550;50.472;19.744;2022-10-20T02:49:17;99093.61;;;1.98;79.22
50302;BME280;36550;50.472;19.744;2022-10-20T02:52:04;99088.45;;;2.02;79.26
50302;BME280;36550;50.472;19.744;2022-10-20T02:54:48;99085.22;;;2.04;79.57
50302;BME280;36550;50.472;19.744;2022-10-20T02:57:32;99094.16;;;2.10;79.93
50302;BME280;36550;50.472;19.744;2022-10-20T03:00:17;99096.32;;;2.19;80.44
50302;BME280;36550;50.472;19.744;2022-10-20T03:03:01;99100.41;;;2.25;80.62
50302;BME280;36550;50.472;19.744;2022-10-20T03:05:46;99099.94;;;2.30;80.77
50302;BME280;36550;50.472;19.744;2022-10-20T03:08:30;99099.64;;;2.33;80.86
50302;BME280;36550;50.472;19.744;2022-10-20T03:11:15;99106.12;;;2.37;80.92
50302;BME280;36550;50.472;19.744;2022-10-20T03:13:59;99109.37;;;2.39;80.89
50302;BME280;36550;50.472;19.744;2022-10-20T03:16:43;99111.97;;;2.43;80.78
50302;BME280;36550;50.472;19.744;2022-10-20T03:19:28;99118.50;;;2.47;80.69
50302;BME280;36550;50.472;19.744;2022-10-20T03:22:12;99121.55;;;2.47;80.42
50302;BME280;36550;50.472;19.744;2022-10-20T03:24:56;99125.59;;;2.45;80.16
50302;BME280;36550;50.472;19.744;2022-10-20T03:27:40;99129.61;;;2.40;80.02
50302;BME280;36550;50.472;19.744;2022-10-20T03:30:25;99130.73;;;2.37;80.37
50302;BME280;36550;50.472;19.744;2022-10-20T03:33:09;99141.08;;;2.33;80.43
50302;BME280;36550;50.472;19.744;2022-10-20T03:35:53;99141.23;;;2.31;80.51
50302;BME280;36550;50.472;19.744;2022-10-20T03:38:40;99137.18;;;2.29;80.53
50302;BME280;36550;50.472;19.744;2022-10-20T03:41:25;99143.44;;;2.22;80.37
50302;BME280;36550;50.472;19.744;2022-10-20T03:44:10;99141.25;;;2.09;79.79
50302;BME280;36550;50.472;19.744;2022-10-20T03:46:55;99129.02;;;1.98;79.38
50302;BME280;36550;50.472;19.744;2022-10-20T03:49:39;99134.95;;;1.90;79.25
50302;BME280;36550;50.472;19.744;2022-10-20T03:52:23;99136.38;;;1.84;79.35
50302;BME280;36550;50.472;19.744;2022-10-20T03:55:08;99135.34;;;1.77;79.55
50302;BME280;36550;50.472;19.744;2022-10-20T03:57:52;99141.45;;;1.72;79.51
50302;BME280;36550;50.472;19.744;2022-10-20T04:00:37;99141.77;;;1.69;79.60
50302;BME280;36550;50.472;19.744;2022-10-20T04:03:21;99143.48;;;1.64;79.58
50302;BME280;36550;50.472;19.744;2022-10-20T04:06:05;99145.39;;;1.58;79.63
50302;BME280;36550;50.472;19.744;2022-10-20T04:08:49;99138.05;;;1.53;79.79
50302;BME280;36550;50.472;19.744;2022-10-20T04:11:34;99136.21;;;1.46;79.65
50302;BME280;36550;50.472;19.744;2022-10-20T04:14:18;99138.94;;;1.44;79.52
50302;BME280;36550;50.472;19.744;2022-10-20T04:17:02;99134.60;;;1.45;79.57
50302;BME280;36550;50.472;19.744;2022-10-20T04:19:47;99136.24;;;1.50;79.68
50302;BME280;36550;50.472;19.744;2022-10-20T04:22:31;99137.54;;;1.50;79.56
50302;BME280;36550;50.472;19.744;2022-10-20T04:25:15;99136.73;;;1.49;79.59
50302;BME280;36550;50.472;19.744;2022-10-20T04:28:00;99134.95;;;1.50;79.79
50302;BME280;36550;50.472;19.744;2022-10-20T04:30:44;99129.46;;;1.49;79.71
50302;BME280;36550;50.472;19.744;2022-10-20T04:33:29;99139.09;;;1.43;79.53
50302;BME280;36550;50.472;19.744;2022-10-20T04:36:13;99136.47;;;1.39;79.47
50302;BME280;36550;50.472;19.744;2022-10-20T04:38:58;99128.50;;;1.32;79.38
50302;BME280;36550;50.472;19.744;2022-10-20T04:41:42;99133.16;;;1.28;79.43
50302;BME280;36550;50.472;19.744;2022-10-20T04:44:26;99129.36;;;1.23;79.30
50302;BME280;36550;50.472;19.744;2022-10-20T04:47:11;99125.13;;;1.18;79.05
50302;BME280;36550;50.472;19.744;2022-10-20T04:49:55;99125.23;;;1.12;78.91
50302;BME280;36550;50.472;19.744;2022-10-20T04:52:40;99120.38;;;1.13;79.04
50302;BME280;36550;50.472;19.744;2022-10-20T04:55:24;99123.73;;;1.09;79.02
50302;BME280;36550;50.472;19.744;2022-10-20T04:58:09;99128.77;;;1.11;79.31
50302;BME280;36550;50.472;19.744;2022-10-20T05:00:53;99124.88;;;1.11;79.43
50302;BME280;36550;50.472;19.744;2022-10-20T05:03:37;99128.41;;;1.10;79.46
50302;BME280;36550;50.472;19.744;2022-10-20T05:06:30;99131.31;;;1.07;79.44
50302;BME280;36550;50.472;19.744;2022-10-20T05:09:15;99129.01;;;1.04;79.30
50302;BME280;36550;50.472;19.744;2022-10-20T05:11:59;99133.13;;;0.96;79.04
50302;BME280;36550;50.472;19.744;2022-10-20T05:14:43;99137.35;;;0.98;79.16
50302;BME280;36550;50.472;19.744;2022-10-20T05:17:28;99136.86;;;0.98;79.07
50302;BME280;36550;50.472;19.744;2022-10-20T05:20:13;99139.31;;;1.00;78.95
50302;BME280;36550;50.472;19.744;2022-10-20T05:22:57;99137.73;;;1.03;78.97
50302;BME280;36550;50.472;19.744;2022-10-20T05:25:42;99132.26;;;1.06;79.14
50302;BME280;36550;50.472;19.744;2022-10-20T05:28:26;99134.56;;;1.09;79.27
50302;BME280;36550;50.472;19.744;2022-10-20T05:31:10;99140.88;;;1.10;79.28
50302;BME280;36550;50.472;19.744;2022-10-20T05:33:55;99142.80;;;1.08;79.13
50302;BME280;36550;50.472;19.744;2022-10-20T05:36:39;99141.97;;;1.08;79.08
50302;BME280;36550;50.472;19.744;2022-10-20T05:39:24;99142.45;;;1.07;79.04
50302;BME280;36550;50.472;19.744;2022-10-20T05:42:08;99134.53;;;1.05;78.93
50302;BME280;36550;50.472;19.744;2022-10-20T05:44:52;99130.83;;;1.07;79.05
50302;BME280;36550;50.472;19.744;2022-10-20T05:47:37;99132.02;;;1.13;79.12
50302;BME280;36550;50.472;19.744;2022-10-20T05:50:21;99130.75;;;1.17;79.17
50302;BME280;36550;50.472;19.744;2022-10-20T05:53:05;99135.98;;;1.21;79.11
50302;BME280;36550;50.472;19.744;2022-10-20T05:55:50;99138.61;;;1.25;78.92
50302;BME280;36550;50.472;19.744;2022-10-20T05:58:34;99139.94;;;1.29;78.81
50302;BME280;36550;50.472;19.744;2022-10-20T06:01:21;99139.51;;;1.34;78.78
50302;BME280;36550;50.472;19.744;2022-10-20T06:04:07;99135.98;;;1.39;79.04
50302;BME280;36550;50.472;19.744;2022-10-20T06:06:52;99136.56;;;1.47;79.25
50302;BME280;36550;50.472;19.744;2022-10-20T06:09:37;99137.88;;;1.51;79.21
50302;BME280;36550;50.472;19.744;2022-10-20T06:12:21;99143.58;;;1.54;79.27
50302;BME280;36550;50.472;19.744;2022-10-20T06:15:06;99141.36;;;1.60;79.29
50302;BME280;36550;50.472;19.744;2022-10-20T06:17:51;99147.23;;;1.66;79.38
50302;BME280;36550;50.472;19.744;2022-10-20T06:20:35;99160.34;;;1.68;79.33
50302;BME280;36550;50.472;19.744;2022-10-20T06:23:19;99161.83;;;1.71;79.50
50302;BME280;36550;50.472;19.744;2022-10-20T06:26:10;99166.60;;;1.80;79.60
50302;BME280;36550;50.472;19.744;2022-10-20T06:28:54;99164.23;;;1.90;79.73
50302;BME280;36550;50.472;19.744;2022-10-20T06:31:41;99159.66;;;2.02;79.83
50302;BME280;36550;50.472;19.744;2022-10-20T06:34:27;99162.02;;;2.18;80.05
50302;BME280;36550;50.472;19.744;2022-10-20T06:37:12;99161.97;;;2.36;80.36
50302;BME280;36550;50.472;19.744;2022-10-20T06:39:56;99159.62;;;2.50;80.55
50302;BME280;36550;50.472;19.744;2022-10-20T06:42:40;99160.98;;;2.63;80.59
50302;BME280;36550;50.472;19.744;2022-10-20T06:45:24;99166.55;;;2.72;80.55
50302;BME280;36550;50.472;19.744;2022-10-20T06:48:09;99166.55;;;2.76;80.44
50302;BME280;36550;50.472;19.744;2022-10-20T06:50:57;99168.05;;;2.79;80.32
50302;BME280;36550;50.472;19.744;2022-10-20T06:53:43;99166.25;;;2.79;80.43
50302;BME280;36550;50.472;19.744;2022-10-20T06:56:30;99165.96;;;2.86;80.39
50302;BME280;36550;50.472;19.744;2022-10-20T06:59:15;99161.45;;;2.97;80.52
50302;BME280;36550;50.472;19.744;2022-10-20T07:01:59;99167.83;;;3.11;80.61
50302;BME280;36550;50.472;19.744;2022-10-20T07:04:44;99172.56;;;3.23;80.66
50302;BME280;36550;50.472;19.744;2022-10-20T07:07:28;99164.02;;;3.39;80.81
50302;BME280;36550;50.472;19.744;2022-10-20T07:10:13;99164.05;;;3.60;81.07
50302;BME280;36550;50.472;19.744;2022-10-20T07:12:57;99164.55;;;3.76;81.31
50302;BME280;36550;50.472;19.744;2022-10-20T07:15:41;99163.56;;;3.93;81.44
50302;BME280;36550;50.472;19.744;2022-10-20T07:18:27;99167.77;;;4.07;81.51
50302;BME280;36550;50.472;19.744;2022-10-20T07:21:16;99160.63;;;4.17;81.44
50302;BME280;36550;50.472;19.744;2022-10-20T07:24:01;99162.22;;;4.30;81.55
50302;BME280;36550;50.472;19.744;2022-10-20T07:26:47;99170.66;;;4.40;81.54
50302;BME280;36550;50.472;19.744;2022-10-20T07:29:31;99168.35;;;4.54;81.44
50302;BME280;36550;50.472;19.744;2022-10-20T07:32:16;99172.70;;;4.70;81.48
50302;BME280;36550;50.472;19.744;2022-10-20T07:35:00;99168.41;;;4.85;81.63
50302;BME280;36550;50.472;19.744;2022-10-20T07:37:45;99168.38;;;4.97;81.80
50302;BME280;36550;50.472;19.744;2022-10-20T07:40:29;99167.99;;;5.09;81.84
50302;BME280;36550;50.472;19.744;2022-10-20T07:43:15;99166.67;;;5.17;81.79
50302;BME280;36550;50.472;19.744;2022-10-20T07:46:00;99163.20;;;5.25;81.97
50302;BME280;36550;50.472;19.744;2022-10-20T07:48:44;99173.25;;;5.32;81.90
50302;BME280;36550;50.472;19.744;2022-10-20T07:51:29;99171.89;;;5.40;81.78
50302;BME280;36550;50.472;19.744;2022-10-20T07:54:15;99170.52;;;5.52;81.67
50302;BME280;36550;50.472;19.744;2022-10-20T07:57:00;99164.61;;;5.63;81.65
50302;BME280;36550;50.472;19.744;2022-10-20T07:59:44;99168.40;;;5.75;81.91
50302;BME280;36550;50.472;19.744;2022-10-20T08:02:29;99166.88;;;5.85;81.92
50302;BME280;36550;50.472;19.744;2022-10-20T08:05:13;99175.92;;;5.93;81.88
50302;BME280;36550;50.472;19.744;2022-10-20T08:07:59;99177.22;;;5.97;81.73
50302;BME280;36550;50.472;19.744;2022-10-20T08:10:43;99172.80;;;6.02;81.72
50302;BME280;36550;50.472;19.744;2022-10-20T08:13:28;99174.34;;;6.11;81.56
50302;BME280;36550;50.472;19.744;2022-10-20T08:16:13;99166.27;;;6.21;81.64
50302;BME280;36550;50.472;19.744;2022-10-20T08:18:58;99174.83;;;6.29;81.67
50302;BME280;36550;50.472;19.744;2022-10-20T08:21:42;99177.37;;;6.38;81.56
50302;BME280;36550;50.472;19.744;2022-10-20T08:24:27;99184.13;;;6.47;81.53
50302;BME280;36550;50.472;19.744;2022-10-20T08:27:11;99182.22;;;6.55;81.51
50302;BME280;36550;50.472;19.744;2022-10-20T08:29:56;99182.45;;;6.65;81.36
50302;BME280;36550;50.472;19.744;2022-10-20T08:32:40;99187.59;;;6.73;81.18
50302;BME280;36550;50.472;19.744;2022-10-20T08:35:24;99187.45;;;6.85;81.14
50302;BME280;36550;50.472;19.744;2022-10-20T08:38:09;99184.56;;;6.95;81.13
50302;BME280;36550;50.472;19.744;2022-10-20T08:40:53;99184.16;;;7.02;81.03
50302;BME280;36550;50.472;19.744;2022-10-20T08:43:39;99184.36;;;7.11;81.02
50302;BME280;36550;50.472;19.744;2022-10-20T08:46:36;99186.67;;;7.21;80.96
50302;BME280;36550;50.472;19.744;2022-10-20T08:49:24;99178.75;;;7.29;80.83
50302;BME280;36550;50.472;19.744;2022-10-20T08:52:21;99180.26;;;7.39;80.48
50302;BME280;36550;50.472;19.744;2022-10-20T08:55:03;99177.09;;;7.54;80.53
50302;BME280;36550;50.472;19.744;2022-10-20T08:57:48;99177.24;;;7.67;80.20
50302;BME280;36550;50.472;19.744;2022-10-20T09:00:37;99180.52;;;7.76;79.67
50302;BME280;36550;50.472;19.744;2022-10-20T09:03:30;99164.47;;;7.79;78.94
50302;BME280;36550;50.472;19.744;2022-10-20T09:06:16;99168.06;;;7.89;78.81
50302;BME280;36550;50.472;19.744;2022-10-20T09:09:00;99164.40;;;7.94;77.63
50302;BME280;36550;50.472;19.744;2022-10-20T09:11:45;99170.92;;;8.05;77.68
50302;BME280;36550;50.472;19.744;2022-10-20T09:14:34;99166.05;;;8.13;77.55
50302;BME280;36550;50.472;19.744;2022-10-20T09:17:19;99168.03;;;8.21;77.70
50302;BME280;36550;50.472;19.744;2022-10-20T09:20:05;99162.54;;;8.27;77.04
50302;BME280;36550;50.472;19.744;2022-10-20T09:22:52;99155.44;;;8.32;77.28
50302;BME280;36550;50.472;19.744;2022-10-20T09:25:37;99155.17;;;8.37;76.88
50302;BME280;36550;50.472;19.744;2022-10-20T09:28:25;99157.98;;;8.46;76.16
50302;BME280;36550;50.472;19.744;2022-10-20T09:31:31;99159.44;;;8.56;76.13
50302;BME280;36550;50.472;19.744;2022-10-20T09:34:25;99159.86;;;8.59;75.89
50302;BME280;36550;50.472;19.744;2022-10-20T09:37:16;99160.07;;;8.64;75.05
50302;BME280;36550;50.472;19.744;2022-10-20T09:40:01;99157.63;;;8.74;73.15
50302;BME280;36550;50.472;19.744;2022-10-20T09:42:49;99157.37;;;8.86;73.27
50302;BME280;36550;50.472;19.744;2022-10-20T09:45:57;99157.59;;;8.91;71.86
50302;BME280;36550;50.472;19.744;2022-10-20T09:48:47;99161.14;;;8.94;72.79
50302;BME280;36550;50.472;19.744;2022-10-20T09:51:32;99161.14;;;8.94;72.50
50302;BME280;36550;50.472;19.744;2022-10-20T09:54:18;99161.14;;;8.94;72.03
50302;BME280;36550;50.472;19.744;2022-10-20T09:57:04;99158.05;;;9.01;72.17
50302;BME280;36550;50.472;19.744;2022-10-20T09:59:52;99156.75;;;9.01;70.90
50302;BME280;36550;50.472;19.744;2022-10-20T10:02:37;99155.91;;;9.01;71.29
50302;BME280;36550;50.472;19.744;2022-10-20T10:05:21;99150.80;;;9.03;71.19
50302;BME280;36550;50.472;19.744;2022-10-20T10:08:12;99148.70;;;9.03;70.75
50302;BME280;36550;50.472;19.744;2022-10-20T10:11:03;99144.48;;;9.09;71.26
50302;BME280;36550;50.472;19.744;2022-10-20T10:13:50;99143.59;;;9.19;71.38
50302;BME280;36550;50.472;19.744;2022-10-20T10:16:39;99149.38;;;9.25;70.70
50302;BME280;36550;50.472;19.744;2022-10-20T10:19:27;99148.16;;;9.28;70.14
50302;BME280;36550;50.472;19.744;2022-10-20T10:22:13;99144.03;;;9.29;69.95
50302;BME280;36550;50.472;19.744;2022-10-20T10:24:59;99148.19;;;9.34;70.20
50302;BME280;36550;50.472;19.744;2022-10-20T10:28:01;99138.31;;;9.43;70.39
50302;BME280;36550;50.472;19.744;2022-10-20T10:30:43;99135.80;;;9.52;68.12
50302;BME280;36550;50.472;19.744;2022-10-20T10:33:28;99122.53;;;9.80;67.75
50302;BME280;36550;50.472;19.744;2022-10-20T10:36:20;99122.03;;;10.08;67.61
50302;BME280;36550;50.472;19.744;2022-10-20T10:39:14;99124.42;;;10.23;67.22
50302;BME280;36550;50.472;19.744;2022-10-20T10:42:30;99124.23;;;10.31;65.80
50302;BME280;36550;50.472;19.744;2022-10-20T10:45:38;99121.20;;;10.40;67.01
50302;BME280;36550;50.472;19.744;2022-10-20T10:48:56;99121.68;;;10.47;66.66
50302;BME280;36550;50.472;19.744;2022-10-20T10:55:17;99120.36;;;10.53;62.99
50302;BME280;36550;50.472;19.744;2022-10-20T11:07:42;99117.09;;;10.65;65.19
50302;BME280;36550;50.472;19.744;2022-10-20T11:20:59;99107.52;;;10.84;65.46
50302;BME280;36550;50.472;19.744;2022-10-20T11:26:21;99098.45;;;10.79;65.59
50302;BME280;36550;50.472;19.744;2022-10-20T11:29:16;99096.09;;;10.65;64.15
50302;BME280;36550;50.472;19.744;2022-10-20T11:44:36;99074.90;;;10.17;64.03
50302;BME280;36550;50.472;19.744;2022-10-20T11:47:29;99072.36;;;10.13;64.37
50302;BME280;36550;50.472;19.744;2022-10-20T11:50:17;99066.44;;;10.15;64.72
50302;BME280;36550;50.472;19.744;2022-10-20T11:53:23;99058.96;;;10.18;64.67
50302;BME280;36550;50.472;19.744;2022-10-20T12:12:09;99045.48;;;9.95;62.15
50302;BME280;36550;50.472;19.744;2022-10-20T12:14:58;99042.27;;;9.93;63.12
50302;BME280;36550;50.472;19.744;2022-10-20T12:17:44;99035.11;;;9.84;62.45
50302;BME280;36550;50.472;19.744;2022-10-20T12:26:35;99020.63;;;9.55;61.95
50302;BME280;36550;50.472;19.744;2022-10-20T12:32:24;99018.40;;;9.52;63.31
50302;BME280;36550;50.472;19.744;2022-10-20T12:38:12;99010.13;;;9.48;62.55
50302;BME280;36550;50.472;19.744;2022-10-20T12:40:58;99008.22;;;9.46;62.54
50302;BME280;36550;50.472;19.744;2022-10-20T12:43:57;99014.69;;;9.43;62.75
50302;BME280;36550;50.472;19.744;2022-10-20T12:47:07;99008.44;;;9.38;62.39
50302;BME280;36550;50.472;19.744;2022-10-20T12:52:48;99002.80;;;9.34;62.45
50302;BME280;36550;50.472;19.744;2022-10-20T12:55:35;99001.17;;;9.33;62.46
50302;BME280;36550;50.472;19.744;2022-10-20T13:01:13;98998.34;;;9.28;62.19
50302;BME280;36550;50.472;19.744;2022-10-20T13:03:57;98989.80;;;9.23;60.65
50302;BME280;36550;50.472;19.744;2022-10-20T13:06:41;98996.54;;;9.22;61.79
50302;BME280;36550;50.472;19.744;2022-10-20T13:09:26;98994.63;;;9.20;61.01
50302;BME280;36550;50.472;19.744;2022-10-20T13:12:25;98992.71;;;9.18;61.87
50302;BME280;36550;50.472;19.744;2022-10-20T13:15:14;98989.58;;;9.18;61.90
50302;BME280;36550;50.472;19.744;2022-10-20T13:21:01;98986.36;;;9.16;62.39
50302;BME280;36550;50.472;19.744;2022-10-20T13:24:05;98981.92;;;9.17;62.67
50302;BME280;36550;50.472;19.744;2022-10-20T13:27:03;98981.32;;;9.15;62.80
50302;BME280;36550;50.472;19.744;2022-10-20T13:29:51;98989.69;;;9.14;63.04
50302;BME280;36550;50.472;19.744;2022-10-20T13:42:39;98979.28;;;9.10;62.64
50302;BME280;36550;50.472;19.744;2022-10-20T13:51:58;98972.34;;;9.06;63.11
50302;BME280;36550;50.472;19.744;2022-10-20T13:54:48;98968.03;;;9.03;63.29
50302;BME280;36550;50.472;19.744;2022-10-20T13:57:34;98963.59;;;9.03;63.51
50302;BME280;36550;50.472;19.744;2022-10-20T14:00:28;98961.97;;;9.02;63.76
50302;BME280;36550;50.472;19.744;2022-10-20T14:03:16;98958.55;;;9.02;64.01
50302;BME280;36550;50.472;19.744;2022-10-20T14:06:01;98959.86;;;9.02;64.09
50302;BME280;36550;50.472;19.744;2022-10-20T14:08:45;98954.53;;;8.99;63.77
50302;BME280;36550;50.472;19.744;2022-10-20T14:11:30;98959.14;;;8.97;63.65
50302;BME280;36550;50.472;19.744;2022-10-20T14:14:17;98955.83;;;8.93;63.76
50302;BME280;36550;50.472;19.744;2022-10-20T14:17:06;98950.78;;;8.91;63.84
50302;BME280;36550;50.472;19.744;2022-10-20T14:20:07;98947.47;;;8.86;63.96
50302;BME280;36550;50.472;19.744;2022-10-20T14:22:57;98944.73;;;8.84;64.16
50302;BME280;36550;50.472;19.744;2022-10-20T14:25:42;98944.04;;;8.79;64.29
50302;BME280;36550;50.472;19.744;2022-10-20T14:28:30;98936.48;;;8.74;64.34
50302;BME280;36550;50.472;19.744;2022-10-20T14:31:21;98937.98;;;8.72;64.49
50302;BME280;36550;50.472;19.744;2022-10-20T14:34:18;98935.85;;;8.72;64.79
50302;BME280;36550;50.472;19.744;2022-10-20T14:37:05;98934.13;;;8.68;64.83
50302;BME280;36550;50.472;19.744;2022-10-20T14:39:53;98932.41;;;8.64;64.80
50302;BME280;36550;50.472;19.744;2022-10-20T14:42:41;98939.25;;;8.59;64.70
50302;BME280;36550;50.472;19.744;2022-10-20T14:45:27;98924.55;;;8.51;64.72
50302;BME280;36550;50.472;19.744;2022-10-20T14:48:13;98924.05;;;8.45;64.73
50302;BME280;36550;50.472;19.744;2022-10-20T14:50:59;98924.30;;;8.39;64.96
50302;BME280;36550;50.472;19.744;2022-10-20T14:53:43;98923.98;;;8.32;65.40
50302;BME280;36550;50.472;19.744;2022-10-20T14:56:27;98928.16;;;8.26;65.60
50302;BME280;36550;50.472;19.744;2022-10-20T14:59:20;98930.97;;;8.18;65.88
50302;BME280;36550;50.472;19.744;2022-10-20T15:02:15;98930.23;;;8.13;65.96
50302;BME280;36550;50.472;19.744;2022-10-20T15:08:23;98925.88;;;8.03;66.43
50302;BME280;36550;50.472;19.744;2022-10-20T15:11:24;98920.52;;;7.94;66.61
50302;BME280;36550;50.472;19.744;2022-10-20T15:14:15;98913.84;;;7.84;66.86
50302;BME280;36550;50.472;19.744;2022-10-20T15:16:59;98912.88;;;7.75;67.02
50302;BME280;36550;50.472;19.744;2022-10-20T15:19:44;98912.11;;;7.63;67.32
50302;BME280;36550;50.472;19.744;2022-10-20T15:22:28;98919.51;;;7.53;67.31
50302;BME280;36550;50.472;19.744;2022-10-20T15:25:12;98914.92;;;7.44;67.27
50302;BME280;36550;50.472;19.744;2022-10-20T15:27:57;98914.08;;;7.37;67.49
50302;BME280;36550;50.472;19.744;2022-10-20T15:30:41;98913.55;;;7.31;67.64
50302;BME280;36550;50.472;19.744;2022-10-20T15:33:26;98903.13;;;7.20;67.81
50302;BME280;36550;50.472;19.744;2022-10-20T15:36:12;98903.65;;;7.09;68.03
50302;BME280;36550;50.472;19.744;2022-10-20T15:38:58;98902.83;;;6.98;68.08
50302;BME280;36550;50.472;19.744;2022-10-20T15:41:43;98896.53;;;6.85;68.32
50302;BME280;36550;50.472;19.744;2022-10-20T15:44:27;98894.62;;;6.72;68.51
50302;BME280;36550;50.472;19.744;2022-10-20T15:47:13;98892.48;;;6.61;68.59
50302;BME280;36550;50.472;19.744;2022-10-20T15:49:57;98893.16;;;6.48;68.79
50302;BME280;36550;50.472;19.744;2022-10-20T15:52:42;98893.19;;;6.38;68.79
50302;BME280;36550;50.472;19.744;2022-10-20T15:55:29;98886.59;;;6.31;68.97
50302;BME280;36550;50.472;19.744;2022-10-20T15:58:15;98885.53;;;6.25;69.03
50302;BME280;36550;50.472;19.744;2022-10-20T16:00:59;98893.59;;;6.20;69.20
50302;BME280;36550;50.472;19.744;2022-10-20T16:03:45;98888.63;;;6.14;69.34
50302;BME280;36550;50.472;19.744;2022-10-20T16:06:29;98888.24;;;6.06;69.39
50302;BME280;36550;50.472;19.744;2022-10-20T16:09:13;98884.75;;;5.95;69.56
50302;BME280;36550;50.472;19.744;2022-10-20T16:11:58;98895.79;;;5.86;69.61
50302;BME280;36550;50.472;19.744;2022-10-20T16:14:42;98888.17;;;5.81;69.62
50302;BME280;36550;50.472;19.744;2022-10-20T16:17:26;98885.36;;;5.71;69.63
50302;BME280;36550;50.472;19.744;2022-10-20T16:20:11;98883.37;;;5.63;69.67
50302;BME280;36550;50.472;19.744;2022-10-20T16:22:55;98887.73;;;5.51;69.77
50302;BME280;36550;50.472;19.744;2022-10-20T16:25:40;98886.73;;;5.37;69.92
50302;BME280;36550;50.472;19.744;2022-10-20T16:28:24;98896.41;;;5.29;69.95
50302;BME280;36550;50.472;19.744;2022-10-20T16:31:11;98897.80;;;5.20;69.97
50302;BME280;36550;50.472;19.744;2022-10-20T16:34:00;98897.02;;;5.16;69.99
50302;BME280;36550;50.472;19.744;2022-10-20T16:36:44;98894.29;;;5.13;70.13
50302;BME280;36550;50.472;19.744;2022-10-20T16:39:28;98887.33;;;5.10;70.28
50302;BME280;36550;50.472;19.744;2022-10-20T16:42:12;98891.91;;;5.08;70.42